Date,TemperatureHighF,TemperatureAvgF,TemperatureLowF,DewpointHighF,DewpointAvgF,DewpointLowF,HumidityHigh,HumidityAvg,HumidityLow,PressureMaxIn,PressureMinIn,WindSpeedMaxMPH,WindSpeedAvgMPH,GustSpeedMaxMPH,PrecipitationSumIn
2013-1-1,48.7,42.5,38.3,46.5,38.9,35.7,95,87,70,30.09,29.55,10,4,10,0.02
2013-1-2,51.8,45.8,38.5,50.3,43.5,36.1,96,92,83,30.37,30.10,9,3,9,0.01
2013-1-3,52.9,51.5,49.5,50.0,49.2,48.1,97,92,89,30.66,30.38,9,4,9,0.00
2013-1-4,51.4,49.1,33.1,48.6,44.8,30.1,91,85,81,30.70,28.46,9,4,9,0.00
2013-1-5,52.2,48.9,44.1,49.3,46.4,42.3,96,91,81,30.56,30.47,6,2,6,0.00
2013-1-6,47.8,46.2,42.3,47.6,45.1,41.2,99,96,91,30.47,30.35,4,1,4,0.01
2013-1-7,48.4,46.9,44.8,45.8,44.4,42.2,95,91,88,30.35,30.20,5,2,5,0.00
2013-1-8,52.9,50.3,45.9,48.0,46.5,42.2,94,87,79,30.22,30.14,6,2,6,0.05
2013-1-9,49.5,43.4,34.0,48.4,40.0,31.2,97,88,74,30.15,30.03,7,1,7,0.09
2013-1-10,38.7,36.3,29.5,37.4,34.1,27.7,96,92,86,30.03,29.88,6,1,6,0.00
2013-1-11,45.1,38.7,34.2,39.7,35.6,31.4,95,88,80,30.04,29.93,4,1,4,0.00
2013-1-12,41.7,39.7,35.1,37.5,31.8,26.4,95,74,55,29.93,29.80,14,6,14,0.18
2013-1-13,38.7,35.1,31.8,32.5,27.9,25.6,79,75,67,30.11,29.91,10,3,10,0.00
2013-1-14,37.8,34.3,31.8,36.1,30.8,26.8,95,87,77,30.06,29.59,7,2,7,0.18
2013-1-15,37.2,33.1,28.0,30.9,28.4,24.4,90,83,73,29.83,29.58,9,2,9,0.00
2013-1-16,32.7,29.1,26.1,28.2,25.9,22.7,93,87,81,29.98,29.78,4,1,4,0.00
2013-1-17,36.5,33.0,24.1,30.2,26.9,20.8,90,78,66,30.03,29.83,0,0,0,0.01
2013-1-18,36.0,30.0,28.2,27.8,26.4,23.9,93,87,65,29.83,29.39,0,0,0,0.00
2013-1-19,33.8,32.7,30.9,30.2,28.1,24.6,89,83,75,29.44,29.35,0,0,0,0.01
2013-1-20,32.5,31.2,29.7,29.1,27.3,23.8,92,86,74,29.43,29.24,0,0,0,0.00
2013-1-21,37.6,33.0,27.5,32.0,28.4,22.7,92,83,75,29.46,29.21,3,0,3,0.06
2013-1-22,37.2,32.6,24.3,33.1,27.3,21.0,93,81,68,29.64,29.46,16,4,16,0.04
2013-1-23,36.7,35.2,34.3,31.7,29.7,28.3,88,80,74,29.77,29.64,9,5,9,0.01
2013-1-24,36.0,34.9,33.8,29.8,28.3,27.0,84,77,72,30.10,29.77,7,3,7,0.00
2013-1-25,50.9,35.5,32.7,47.5,29.5,25.8,91,79,69,31.35,29.55,11,4,11,0.04
2013-1-26,46.9,42.6,34.7,43.8,38.8,27.6,96,87,73,29.86,29.53,10,3,10,0.32
2013-1-27,51.4,48.0,40.5,50.3,42.6,35.6,100,82,61,29.61,29.25,23,6,23,0.28
2013-1-28,52.3,44.9,36.1,49.2,41.1,32.9,97,87,77,29.81,29.49,15,5,15,0.15
2013-1-29,57.2,53.8,49.6,54.5,51.5,46.0,99,92,80,29.63,29.53,15,6,15,0.11
2013-1-30,54.9,50.1,45.1,53.8,42.9,38.7,98,77,61,30.02,29.49,21,8,21,0.37
2013-1-31,50.7,48.7,44.8,45.8,41.7,38.4,89,77,64,30.02,29.75,20,7,20,0.14
2013-2-1,46.9,43.3,38.1,42.5,40.0,36.6,99,89,76,29.83,29.44,9,3,9,0.27
2013-2-2,41.9,38.5,31.5,39.0,31.3,24.9,96,75,63,30.24,29.60,11,4,11,0.01
2013-2-3,49.3,43.4,31.1,47.5,40.2,25.4,94,88,78,30.25,29.90,13,4,13,0.00
2013-2-4,51.3,48.7,43.5,47.7,39.8,34.8,93,72,55,29.94,29.70,16,7,16,0.00
2013-2-5,44.6,40.8,35.8,40.1,34.0,27.8,94,77,56,29.68,29.32,14,7,14,0.22
2013-2-6,43.0,40.1,35.8,40.0,34.4,26.9,95,80,67,30.05,29.36,13,5,13,0.12
2013-2-7,43.2,37.8,33.3,36.9,32.1,25.7,94,80,66,30.11,29.99,9,3,9,0.00
2013-2-8,43.5,39.1,32.2,37.2,34.0,30.4,94,82,68,30.14,30.01,8,3,8,0.01
2013-2-9,40.5,37.7,35.2,38.3,35.6,30.9,99,92,80,30.15,29.85,4,2,4,0.04
2013-2-10,42.1,39.2,33.1,41.5,38.5,32.3,100,97,92,29.84,29.25,15,7,15,0.74
2013-2-11,35.4,34.0,32.9,34.1,32.9,32.3,98,96,94,29.76,29.27,9,4,9,0.18
2013-2-12,36.0,34.5,33.6,32.7,29.2,27.3,95,81,75,30.13,29.76,7,3,7,0.00
2013-2-13,39.9,35.6,33.3,39.9,29.4,23.1,100,78,61,30.19,29.96,11,3,11,0.04
2013-2-14,53.1,48.1,40.1,48.1,43.0,38.5,100,84,65,29.97,29.70,13,4,13,0.06
2013-2-15,51.4,44.2,35.4,41.5,37.3,33.8,98,78,60,30.20,29.97,8,2,8,0.00
2013-2-16,53.6,45.0,37.4,42.5,38.9,35.6,94,80,60,30.24,30.18,4,1,4,0.00
2013-2-17,52.9,41.5,32.4,44.8,36.0,30.7,100,83,52,30.27,29.44,11,3,11,0.00
2013-2-18,48.9,41.2,33.3,39.0,35.2,30.2,100,80,60,30.14,30.08,10,4,10,0.00
2013-2-19,54.5,38.3,27.0,41.9,31.3,24.7,100,77,52,30.46,29.98,4,1,4,0.00
2013-2-20,43.3,38.1,34.7,37.4,27.5,22.6,94,66,54,30.25,30.08,14,6,14,0.01
2013-2-21,36.3,35.1,33.4,23.2,18.5,15.7,59,50,44,30.25,30.15,14,8,14,0.00
2013-2-22,36.7,34.2,32.4,22.4,19.0,15.7,63,54,47,30.16,30.09,14,7,14,0.00
2013-2-23,37.4,33.9,30.9,26.2,22.5,17.0,76,63,48,30.20,30.07,14,4,14,0.00
2013-2-24,36.5,34.8,32.5,26.5,24.2,21.7,76,65,57,30.27,30.17,10,3,10,0.00
2013-2-25,39.9,38.0,34.5,34.3,31.3,23.9,84,77,64,30.37,30.23,12,5,12,0.00
2013-2-26,41.0,39.2,36.5,37.1,35.4,31.8,91,86,81,30.55,30.36,11,5,11,0.01
2013-2-27,45.5,37.4,35.4,35.3,31.6,28.8,90,80,58,30.56,30.47,9,3,13,0.00
2013-2-28,49.1,40.4,34.2,35.1,31.9,28.3,83,72,55,30.47,30.32,8,3,11,0.00
2013-3-1,45.0,41.5,36.3,38.7,31.9,28.0,90,69,55,30.40,30.34,8,3,14,0.01
2013-3-2,43.7,36.9,29.3,31.5,27.4,23.3,80,68,57,30.39,30.26,5,2,9,0.00
2013-3-3,48.9,39.4,26.1,34.0,30.2,20.4,86,70,52,30.26,30.09,9,3,11,0.00
2013-3-4,52.2,43.5,33.4,34.0,31.1,27.6,84,63,43,30.08,29.72,7,3,11,0.00
2013-3-5,68.2,48.7,32.0,41.3,35.5,27.7,90,64,37,29.71,29.56,5,1,8,0.00
2013-3-6,57.0,51.8,44.8,42.3,40.2,36.7,81,65,55,29.55,29.49,7,2,8,0.01
2013-3-7,50.7,48.4,45.1,47.9,45.4,41.9,93,89,82,29.49,29.35,5,2,8,0.21
2013-3-8,51.3,49.7,46.4,48.5,47.4,44.2,94,92,89,29.53,29.35,3,1,6,0.26
2013-3-9,46.4,43.5,38.5,44.2,39.7,33.2,93,86,79,29.66,29.51,4,1,7,0.02
2013-3-10,39.6,36.5,33.8,33.6,28.6,24.0,83,73,66,29.73,29.63,9,4,18,0.00
2013-3-11,33.8,32.1,28.4,24.5,18.7,11.7,69,58,40,29.75,29.70,0,0,0,0.19
2013-3-12,42.4,34.5,28.2,28.5,20.2,9.8,74,57,33,29.81,29.70,13,2,17,0.00
2013-3-13,49.1,40.3,30.6,29.6,24.8,17.1,78,55,30,29.94,29.76,5,2,11,0.00
2013-3-14,50.5,38.6,27.3,31.4,24.5,13.6,84,60,25,30.02,29.90,4,1,7,0.00
2013-3-15,49.8,44.7,37.8,42.2,37.9,25.3,87,77,60,29.89,29.52,6,2,11,0.28
2013-3-16,52.3,44.6,41.7,44.1,39.3,36.5,86,82,64,29.52,29.26,6,2,12,0.41
2013-3-17,48.4,41.5,32.9,41.6,36.8,29.2,88,83,76,29.30,29.14,5,1,9,0.32
2013-3-18,50.2,39.4,28.6,42.8,34.6,25.2,93,83,65,29.34,29.18,5,1,9,0.07
2013-3-19,48.9,40.9,36.0,37.8,33.5,30.2,89,76,55,29.49,29.34,5,2,7,0.00
2013-3-20,46.8,39.9,34.0,37.8,34.1,29.1,89,80,64,29.99,29.49,3,1,9,0.00
2013-3-21,45.1,39.5,34.7,33.3,30.2,27.8,82,69,54,30.00,29.89,9,4,11,0.05
2013-3-22,43.3,40.0,36.9,34.1,31.9,29.2,84,73,64,29.89,29.71,11,7,18,0.28
2013-3-23,37.9,34.6,33.4,33.7,30.1,29.2,87,84,82,29.86,29.71,9,5,15,0.18
2013-3-24,34.5,32.5,31.5,29.5,25.3,18.8,84,75,53,29.92,29.83,7,1,10,0.00
2013-3-25,34.5,33.7,32.7,23.5,20.6,18.2,66,58,52,29.95,29.91,0,0,0,0.00
2013-3-26,35.1,34.0,32.9,23.5,20.5,18.9,68,57,52,29.92,29.86,4,0,9,0.00
2013-3-27,40.8,36.0,30.7,24.2,21.6,17.9,73,56,47,29.88,29.83,6,4,13,0.00
2013-3-28,41.7,36.5,30.0,27.8,23.0,18.7,78,59,45,29.93,29.82,7,3,13,0.00
2013-3-29,46.9,38.6,27.7,25.8,19.5,11.6,71,48,26,29.90,29.77,8,4,14,0.00
2013-3-30,41.9,37.6,34.0,28.2,24.6,21.9,67,59,48,29.96,29.76,6,3,11,0.00
2013-3-31,41.7,36.2,27.1,26.8,22.3,18.7,77,58,43,29.97,29.88,5,2,10,0.00
2013-4-1,44.4,38.2,32.9,26.7,23.1,18.0,69,55,36,29.88,29.82,11,5,16,0.00
2013-4-2,48.6,40.4,30.6,28.1,18.1,7.9,74,44,21,30.05,29.88,9,5,15,0.00
2013-4-3,43.9,38.7,32.4,28.5,22.4,18.3,77,53,38,30.06,29.99,9,6,21,0.01
2013-4-4,38.7,36.5,33.1,30.9,24.4,18.8,77,62,45,29.98,29.90,9,5,22,0.00
2013-4-5,48.9,40.9,34.5,28.3,23.7,14.0,69,52,27,30.11,29.89,8,5,20,0.00
2013-4-6,50.4,39.9,30.6,30.8,26.7,22.5,78,61,36,30.27,30.11,7,2,13,0.00
2013-4-7,55.6,45.2,28.8,32.4,22.5,13.5,77,45,20,30.27,29.87,6,2,11,0.00
2013-4-8,52.9,45.8,39.9,32.1,27.6,19.0,70,51,29,29.86,29.54,9,5,14,0.00
2013-4-9,49.8,43.9,38.3,39.4,36.4,32.3,86,75,64,29.53,29.36,7,3,11,0.11
2013-4-10,54.0,45.1,37.4,41.1,36.5,33.0,90,73,54,29.70,29.41,6,2,10,0.21
2013-4-11,61.5,47.7,42.6,44.9,41.6,40.1,93,81,50,29.48,29.34,8,2,12,0.09
2013-4-12,57.7,49.3,33.6,47.3,43.2,23.5,90,80,59,30.55,29.26,6,2,11,0.35
2013-4-13,55.4,49.4,38.5,50.2,44.2,34.7,90,83,64,29.87,29.72,4,1,9,0.15
2013-4-14,70.2,60.6,52.3,50.7,47.4,44.1,89,63,44,29.92,29.84,5,2,11,0.00
2013-4-15,63.9,57.1,49.1,46.7,44.7,42.0,79,64,52,30.03,29.91,4,2,10,0.00
2013-4-16,65.1,56.9,48.7,46.8,42.6,38.2,84,61,38,30.06,29.86,6,3,12,0.00
2013-4-17,67.5,59.7,47.8,51.6,47.4,41.8,93,66,48,30.05,29.74,7,3,17,0.01
2013-4-18,59.5,53.6,46.8,43.2,38.0,24.7,76,56,31,30.04,29.75,12,5,24,0.12
2013-4-19,60.4,53.2,44.6,41.3,34.8,29.7,77,51,33,30.47,30.04,4,3,11,0.00
2013-4-20,63.0,52.4,36.0,38.3,27.2,19.3,87,43,21,30.52,30.34,6,3,10,0.00
2013-4-21,64.4,52.5,33.1,39.1,32.1,26.0,83,48,25,30.33,30.00,6,2,10,0.00
2013-4-22,60.4,53.8,43.0,46.0,41.1,37.1,85,63,45,30.00,29.92,5,2,11,0.00
2013-4-23,74.1,59.9,49.6,49.7,47.2,43.2,89,65,38,30.19,29.94,5,2,7,0.00
2013-4-24,70.2,60.9,47.7,54.3,50.5,44.5,89,69,54,30.24,30.16,4,2,9,0.04
2013-4-25,75.4,63.8,51.8,55.7,50.8,46.8,95,66,40,30.22,30.00,6,2,13,0.00
2013-4-26,59.9,52.4,43.5,47.6,33.8,22.8,92,53,28,30.01,29.88,5,2,13,0.15
2013-4-27,54.9,46.1,37.4,40.0,35.4,30.9,87,67,44,30.08,29.85,8,3,15,0.02
2013-4-28,57.9,48.8,32.9,40.2,34.2,26.9,91,59,33,30.07,29.86,4,2,11,0.00
2013-4-29,60.4,53.2,45.0,42.9,33.8,29.7,87,50,33,30.15,29.84,7,3,11,0.00
2013-4-30,62.2,53.1,38.5,41.3,35.7,26.8,84,54,28,30.29,30.15,6,3,15,0.00
2013-5-1,43.5,41.0,37.2,39.0,37.4,32.8,91,87,76,30.28,30.24,2,1,7,0.00
2013-5-9,61.2,54.7,44.1,48.9,42.9,37.6,94,66,44,29.79,29.62,7,4,17,0.04
2013-5-10,64.9,56.9,48.7,50.0,46.8,41.8,88,71,47,29.89,29.63,7,4,15,0.02
2013-5-11,58.5,52.4,42.8,48.6,43.5,39.6,96,73,51,29.89,29.75,7,3,15,0.21
2013-5-12,61.3,52.8,41.7,51.7,47.0,36.4,95,83,44,29.98,29.86,5,3,11,0.02
2013-5-13,62.1,55.5,47.5,51.0,39.3,32.0,95,56,34,29.88,29.76,7,4,17,0.00
2013-5-14,54.1,48.8,45.3,48.7,45.3,39.9,96,88,63,29.77,29.17,8,4,15,0.33
2013-5-15,62.6,50.1,43.0,43.9,40.5,36.2,89,71,39,29.51,29.08,5,3,10,0.00
2013-5-16,67.8,54.7,36.7,46.7,40.1,29.6,100,63,26,29.52,29.44,3,1,8,0.00
2013-5-17,55.6,51.3,42.8,47.8,43.5,37.7,95,75,64,29.78,29.53,5,2,10,0.00
2013-5-18,59.2,53.8,48.2,45.8,44.3,42.3,85,71,55,29.77,29.70,6,1,9,0.00
2013-5-19,69.6,61.8,46.8,50.1,47.5,43.4,91,61,47,29.86,29.74,4,2,9,0.00
2013-5-20,66.6,60.9,51.6,57.5,55.2,47.8,92,82,71,29.88,29.81,3,2,10,0.01
2013-5-21,61.7,57.5,54.1,56.3,50.0,47.7,89,76,63,30.04,29.87,3,2,8,0.00
2013-5-22,62.2,55.0,47.8,49.2,43.1,35.0,92,65,43,30.07,29.98,4,2,10,0.00
2013-5-23,54.3,48.9,42.4,41.3,37.1,30.0,84,64,42,29.97,29.86,6,3,13,0.04
2013-5-24,50.0,46.3,42.1,47.7,41.6,37.5,94,84,73,29.99,29.58,9,3,15,0.26
2013-5-25,65.3,55.1,42.1,43.4,38.5,32.7,95,56,32,30.14,30.00,4,2,9,0.01
2013-5-26,72.5,62.7,42.3,41.9,38.7,33.2,88,44,26,30.10,29.92,4,2,10,0.00
2013-5-27,69.4,60.1,42.3,46.2,37.2,18.8,86,46,15,29.92,29.59,5,2,11,0.00
2013-5-28,55.0,51.8,49.6,52.7,48.4,41.9,100,88,64,29.58,29.36,3,1,5,0.61
2013-5-29,57.2,52.9,45.5,53.7,50.0,44.6,100,90,73,29.74,29.52,3,1,7,0.02
2013-5-30,61.2,56.4,52.2,53.8,52.1,50.0,100,86,72,29.97,29.71,3,2,9,0.09
2013-5-31,75.9,62.7,33.6,55.9,51.0,23.5,92,67,45,30.34,28.98,4,2,7,0.00
2013-6-1,70.3,60.8,50.7,50.2,43.6,39.9,82,55,34,30.27,30.10,4,2,11,0.00
2013-6-2,70.2,61.5,46.4,47.4,41.6,37.2,89,50,33,30.46,30.27,4,2,9,0.00
2013-6-3,69.1,60.6,45.3,48.8,43.1,39.7,90,55,36,30.51,30.43,7,3,13,0.00
2013-6-4,71.6,59.5,45.1,49.7,44.2,39.8,88,59,34,30.45,30.24,9,3,15,0.00
2013-6-5,72.9,60.4,47.5,52.6,48.2,43.8,91,66,41,30.25,30.10,5,3,12,0.00
2013-6-6,74.3,64.4,47.5,51.6,48.5,44.4,90,58,43,30.22,30.15,7,4,12,0.00
2013-6-7,72.0,62.2,49.5,54.7,48.1,43.4,83,61,43,30.25,30.20,6,4,13,0.02
2013-6-8,71.8,58.9,32.0,53.2,46.0,44.7,88,63,47,30.25,30.03,10,4,17,0.02
2013-6-9,62.6,56.3,50.9,47.5,45.7,43.9,83,68,56,30.04,29.93,7,3,12,0.00
2013-6-10,65.1,56.9,33.6,48.4,44.4,23.5,80,64,49,30.14,29.80,4,1,11,3.01
2013-6-11,67.5,58.6,49.1,60.1,52.5,44.3,92,80,72,29.83,29.75,4,2,7,0.00
2013-6-12,64.8,61.0,57.2,60.0,56.7,52.7,94,86,69,29.76,29.66,5,2,13,0.08
2013-6-13,66.7,59.6,53.4,55.9,50.9,45.0,91,74,56,29.91,29.62,7,4,17,0.01
2013-6-14,73.6,61.8,49.1,53.0,48.3,35.9,88,64,28,29.93,29.63,4,2,9,0.00
2013-6-15,64.6,59.5,51.3,55.6,49.2,41.7,94,70,46,29.72,29.52,6,3,15,0.18
2013-6-16,72.7,61.5,53.1,51.8,48.9,45.6,86,64,43,29.81,29.70,3,2,7,0.00
2013-6-17,70.3,63.7,55.6,52.1,50.0,47.2,84,62,47,29.83,29.77,7,4,14,0.00
2013-6-18,73.0,65.1,56.3,63.1,57.2,50.7,91,76,62,29.85,29.76,4,1,7,0.00
2013-6-19,83.8,70.1,33.6,63.7,57.4,23.1,94,67,42,30.01,29.80,4,1,9,6.56
2013-6-20,71.8,66.6,60.4,63.5,59.4,56.6,89,78,67,29.94,29.76,4,2,9,0.00
2013-6-21,76.3,65.0,58.1,60.4,56.8,53.6,92,76,54,29.85,29.74,5,2,9,0.00
2013-6-22,64.8,59.4,53.8,58.8,53.6,50.5,100,82,65,29.83,29.62,6,3,14,0.13
2013-6-23,65.1,60.0,53.8,54.5,51.2,49.4,94,73,61,29.99,29.61,6,4,15,0.04
2013-6-24,66.4,58.9,50.2,50.0,44.8,40.5,89,61,43,30.27,29.99,4,2,12,0.01
2013-6-25,73.8,61.9,51.1,50.9,45.4,39.5,82,57,29,30.40,30.27,3,1,5,0.00
2013-6-26,76.8,65.0,50.5,53.3,48.5,42.4,91,58,34,30.41,30.34,4,1,9,0.00
2013-6-27,72.0,61.9,53.1,54.9,49.8,45.2,97,67,42,30.36,30.16,3,2,10,0.07
2013-6-28,73.2,62.9,33.6,62.8,58.6,23.1,100,86,65,30.28,29.76,4,2,10,0.17
2013-6-29,76.5,63.9,56.1,58.0,49.3,45.1,87,62,35,30.25,30.08,4,2,7,0.00
2013-6-30,82.4,69.0,57.9,61.1,56.3,51.6,100,67,38,30.26,30.09,6,2,8,0.00
2013-7-1,72.9,62.9,56.5,53.8,50.0,44.1,88,65,37,30.09,30.00,5,2,7,0.00
2013-7-2,65.5,60.1,52.9,55.7,52.0,48.8,87,75,59,29.97,29.66,4,1,8,0.00
2013-7-3,71.6,63.8,58.3,59.6,56.5,53.8,100,79,55,30.02,29.61,4,2,9,0.08
2013-7-4,79.9,66.4,54.5,61.3,56.6,51.3,93,73,47,30.26,30.01,5,2,9,0.00
2013-7-5,87.3,70.3,53.8,59.0,54.0,49.5,94,61,30,30.43,30.26,4,1,7,0.00
2013-7-6,88.3,74.5,54.7,61.6,56.0,52.1,93,56,32,30.43,30.37,4,1,7,0.00
2013-7-7,88.0,75.0,60.6,62.9,57.8,52.4,93,58,31,30.53,30.43,6,2,9,0.00
2013-7-8,83.1,72.9,59.4,61.8,56.3,51.2,88,58,41,30.54,30.45,6,3,14,0.00
2013-7-9,82.9,69.6,53.8,55.4,46.9,37.0,90,49,21,30.47,30.29,6,2,10,0.00
2013-7-10,77.2,67.3,54.5,58.5,52.8,46.5,81,61,44,30.32,30.27,7,3,15,0.00
2013-7-11,77.0,64.8,52.5,52.7,47.6,45.1,84,56,34,30.32,30.24,5,3,11,0.00
2013-7-12,81.9,67.9,53.4,58.3,53.7,49.2,87,63,41,30.32,30.24,3,1,7,0.00
2013-7-13,93.4,79.6,59.9,64.8,60.2,56.1,91,55,33,30.27,30.23,4,2,10,0.00
2013-7-14,89.4,79.2,63.7,64.7,58.1,52.1,87,51,33,30.27,30.20,5,1,9,0.00
2013-7-15,93.7,78.4,62.2,57.0,46.0,28.9,73,37,12,30.26,30.21,3,1,6,0.00
2013-7-16,94.3,77.7,62.6,61.4,55.8,52.8,74,49,29,30.25,30.19,3,1,5,0.00
2013-7-17,97.2,80.8,63.5,62.0,58.0,53.9,78,48,26,30.30,30.22,4,1,8,0.00
2013-7-18,87.1,76.6,63.9,60.1,56.9,53.4,77,53,33,30.34,30.29,6,2,11,0.00
2013-7-19,86.4,74.9,59.4,60.3,55.1,51.1,75,52,34,30.33,30.23,7,4,15,0.00
2013-7-20,76.6,68.9,61.2,60.6,58.5,55.5,93,70,55,30.28,30.17,7,4,13,0.00
2013-7-21,84.0,72.7,62.6,62.9,59.4,53.8,84,65,45,30.19,30.05,6,3,11,0.00
2013-7-22,97.3,79.7,62.2,65.6,61.6,57.8,92,59,32,30.07,29.97,4,1,7,0.00
2013-7-23,89.6,75.6,65.8,70.1,63.3,58.8,90,67,44,29.98,29.91,5,1,6,0.08
2013-7-24,85.8,71.6,33.6,61.3,56.3,23.1,91,61,38,30.31,29.68,4,2,7,0.22
2013-7-25,81.3,69.7,62.8,60.0,55.7,48.9,82,62,41,29.92,29.85,3,1,7,0.09
2013-7-26,89.4,73.5,56.3,55.8,46.5,39.1,80,42,18,29.89,29.83,3,1,7,0.00
2013-7-27,87.6,71.2,57.7,61.0,51.9,39.6,87,56,20,29.84,29.56,5,1,10,0.18
2013-7-28,80.8,69.0,58.8,58.7,53.4,47.3,90,60,31,29.75,29.58,6,2,10,0.06
2013-7-29,77.9,68.8,59.5,58.6,54.1,47.9,90,62,36,29.94,29.74,4,2,12,0.14
2013-7-30,76.3,65.0,59.4,62.9,57.1,54.4,90,77,53,29.94,29.82,3,1,7,0.22
2013-7-31,79.2,69.6,62.1,60.7,58.0,53.4,82,67,50,29.97,29.91,4,2,10,0.00
2013-8-1,96.6,82.4,62.2,60.6,56.5,51.1,86,47,22,29.91,29.67,6,2,11,0.00
2013-8-2,84.6,72.3,63.1,61.5,54.8,45.4,80,57,28,29.80,29.71,3,2,9,0.00
2013-8-3,79.9,69.0,59.2,57.8,51.5,45.9,90,56,32,30.07,29.77,6,2,11,0.04
2013-8-4,79.0,69.7,58.3,59.1,51.5,46.3,86,55,32,30.08,30.00,4,2,10,0.00
2013-8-5,79.0,66.9,59.7,59.8,56.0,50.0,90,70,37,30.00,29.74,4,1,10,0.37
2013-8-6,76.5,66.5,53.1,56.3,46.6,38.6,90,53,27,30.02,29.89,3,1,5,0.00
2013-8-7,76.5,67.8,57.6,54.1,44.9,37.3,82,47,25,30.01,29.88,5,2,11,0.00
2013-8-8,83.3,70.8,52.0,50.9,44.9,33.1,78,43,19,30.11,30.01,3,1,7,0.00
2013-8-9,80.1,69.1,60.8,61.2,48.7,37.9,87,52,23,30.16,29.99,4,2,10,0.04
2013-8-10,77.7,66.8,56.3,48.8,43.1,34.4,72,45,25,30.18,30.11,4,2,9,0.00
2013-8-11,77.4,68.4,60.4,55.2,46.2,37.1,73,47,24,30.10,29.98,5,2,11,0.00
2013-8-12,75.0,65.2,55.8,50.5,42.1,29.9,77,46,21,30.07,29.96,5,2,12,0.00
2013-8-13,72.0,60.3,51.8,54.3,48.3,36.1,85,67,27,30.18,30.07,4,1,7,0.02
2013-8-14,80.1,66.3,51.1,58.3,51.9,44.8,90,64,30,30.19,30.11,3,1,9,0.08
2013-8-15,78.3,68.9,62.2,66.5,58.6,55.6,90,71,49,30.11,29.97,6,2,10,0.06
2013-8-16,81.5,69.0,62.1,61.8,59.1,56.2,85,72,44,29.97,29.91,3,1,7,0.09
2013-8-17,72.7,64.3,56.5,58.6,54.3,50.8,90,71,47,29.95,29.68,4,2,10,0.04
2013-8-18,78.8,65.9,33.6,59.6,49.7,16.7,86,57,38,30.05,29.67,4,2,9,0.00
2013-8-19,78.1,66.8,53.2,52.7,47.1,42.3,88,52,30,30.28,29.88,3,2,8,0.00
2013-8-20,84.9,68.3,52.7,54.7,48.7,41.4,87,54,24,30.36,30.28,3,1,4,0.00
2013-8-21,85.5,71.9,53.2,57.2,51.2,44.3,90,52,27,30.28,30.13,3,1,7,0.00
2013-8-22,78.6,69.0,62.1,64.1,61.6,57.3,93,78,54,30.14,30.03,4,1,7,0.15
2013-8-23,83.3,73.7,61.5,61.9,56.6,49.8,96,59,37,30.03,29.84,6,2,14,0.00
2013-8-24,69.3,64.0,59.2,66.1,60.0,54.4,97,87,74,29.86,29.79,4,2,8,0.46
2013-8-25,78.1,67.9,55.6,63.7,58.2,50.8,97,73,47,30.03,29.80,6,2,12,0.08
2013-8-26,82.2,69.7,59.4,61.3,54.6,47.8,94,63,35,30.08,30.02,5,2,9,0.00
2013-8-27,79.7,64.7,53.4,60.3,50.7,44.9,100,65,31,30.11,30.02,4,1,6,0.00
2013-8-28,84.9,68.8,53.1,57.5,51.3,45.6,97,58,27,30.21,30.11,4,1,6,0.00
2013-8-29,80.6,69.1,57.4,59.2,55.6,51.2,95,65,36,30.18,30.12,4,1,9,0.00
2013-8-30,81.0,70.5,58.5,62.8,58.3,55.2,95,68,42,30.13,30.03,4,2,10,0.00
2013-8-31,74.3,64.1,54.0,60.4,45.0,38.1,95,53,27,30.38,30.11,3,2,9,0.00
2013-9-1,75.2,62.8,48.9,52.7,48.0,41.5,85,61,37,30.42,30.31,4,2,9,0.00
2013-9-2,85.3,70.4,52.2,58.7,55.7,50.8,95,62,40,30.33,30.27,3,2,9,0.00
2013-9-3,87.3,71.0,55.9,61.2,58.1,55.1,100,67,38,30.34,30.25,2,0,4,0.00
2013-9-4,88.9,71.5,54.9,61.7,57.2,50.3,100,66,27,30.24,29.99,4,1,9,0.00
2013-9-5,93.6,75.8,55.9,62.5,56.7,47.3,97,57,30,29.98,29.76,3,1,7,0.00
2013-9-6,75.0,60.9,33.6,58.1,53.0,23.5,91,76,50,30.01,29.63,4,1,8,0.01
2013-9-7,73.6,60.4,51.8,53.0,48.8,43.7,92,68,38,30.01,29.77,4,1,9,0.01
2013-9-8,66.4,57.2,45.5,55.9,49.4,43.7,100,77,50,30.02,29.99,3,1,9,0.02
2013-9-9,59.2,53.8,46.0,56.0,52.4,45.2,100,95,85,30.00,29.92,4,1,7,0.13
2013-9-10,64.6,56.4,32.0,51.8,48.9,45.7,100,69,54,30.13,29.79,6,2,10,0.01
2013-9-11,65.3,58.5,53.4,55.6,51.2,47.8,100,78,56,30.15,30.06,6,2,9,0.08
2013-9-12,76.1,62.3,54.7,61.5,56.4,53.8,100,82,53,30.08,30.01,2,0,4,0.05
2013-9-13,68.2,62.8,54.7,65.9,61.0,8.8,100,94,12,30.03,29.85,3,1,12,0.87
2013-9-14,58.3,53.7,47.1,53.3,49.7,46.0,100,87,72,30.03,29.85,4,1,9,0.05
2013-9-15,61.0,55.9,41.9,60.6,51.6,41.6,100,86,59,30.00,29.49,4,2,11,0.09
2013-9-16,61.9,54.5,33.6,47.7,40.7,23.5,86,61,41,30.01,29.53,7,3,14,0.01
2013-9-17,58.3,53.9,47.3,55.1,47.3,39.1,90,79,57,29.63,29.33,4,1,7,0.19
2013-9-18,63.0,53.2,33.6,52.1,41.4,15.5,90,66,40,29.84,29.40,4,1,9,0.21
2013-9-19,68.7,56.3,43.9,62.8,52.5,42.7,97,87,69,29.86,29.70,4,1,9,0.01
2013-9-20,75.9,60.8,49.6,52.0,49.2,47.3,96,68,39,30.17,29.84,3,1,6,0.01
2013-9-21,67.5,61.0,49.8,61.7,56.7,47.9,100,86,75,30.29,30.16,2,1,6,0.00
2013-9-22,71.1,64.8,57.0,62.5,60.8,56.2,100,88,70,30.36,30.28,3,1,4,0.00
2013-9-23,75.9,62.6,54.9,62.3,58.3,54.0,100,87,58,30.32,30.10,2,0,5,0.00
2013-9-24,81.5,60.4,48.9,60.5,55.5,48.7,100,86,47,30.09,29.91,3,0,4,0.00
2013-9-25,77.4,65.9,55.2,61.7,58.5,54.4,100,79,52,29.91,29.83,3,0,4,0.00
2013-9-26,70.5,62.6,57.4,58.6,51.9,46.1,94,70,44,30.06,29.85,6,3,9,0.00
2013-9-27,67.3,59.5,49.8,52.9,50.4,23.5,97,73,54,30.23,29.68,6,3,10,0.02
2013-9-28,68.0,60.9,53.2,57.7,52.7,45.9,96,75,54,29.91,29.73,6,3,15,0.00
2013-9-29,68.2,61.5,57.2,54.5,53.0,51.6,86,74,58,29.74,29.70,6,4,15,0.01
2013-9-30,68.0,62.0,55.2,56.7,52.3,49.4,91,72,54,29.78,29.67,5,3,12,0.00
2013-10-1,64.2,58.7,52.0,56.1,52.5,50.5,97,81,68,29.81,29.74,7,3,10,0.00
2013-10-2,75.0,64.7,57.9,62.0,58.4,51.9,94,81,61,29.88,29.76,6,2,10,0.00
2013-10-3,66.9,62.9,56.5,64.2,60.7,56.2,100,93,84,29.86,29.69,6,2,12,0.04
2013-10-4,74.1,65.4,59.0,64.2,59.6,56.3,100,83,61,29.94,29.65,4,2,10,0.02
2013-10-5,70.5,61.4,54.9,58.5,55.2,52.3,100,81,58,30.25,29.94,3,0,4,0.00
2013-10-6,73.4,58.1,44.2,56.2,50.6,43.7,100,79,42,30.33,30.24,3,0,4,0.00
2013-10-7,74.3,59.7,47.1,60.3,53.9,46.9,100,83,54,30.31,30.25,3,1,6,0.00
2013-10-8,70.7,61.7,33.6,60.6,55.4,21.1,100,81,58,30.29,29.70,3,1,8,0.00
2013-10-9,66.2,57.0,47.5,57.9,48.5,38.7,95,74,57,30.22,29.95,4,2,13,0.00
2013-10-10,54.7,49.6,44.6,41.7,38.9,36.5,79,67,55,30.10,29.97,6,3,13,0.00
2013-10-11,58.1,53.9,46.9,53.5,49.9,39.8,95,86,66,30.11,29.93,7,4,17,0.15
2013-10-12,61.2,53.3,33.6,54.0,46.6,23.1,100,79,55,30.40,29.89,6,2,12,0.25
2013-10-13,52.9,50.7,47.3,52.7,50.3,47.0,100,99,92,30.00,29.75,4,2,10,0.38
2013-10-14,54.7,49.0,33.6,49.9,47.0,23.1,100,93,65,30.44,29.40,4,2,9,0.17
2013-10-15,60.3,49.9,44.8,49.9,47.2,44.0,100,91,68,30.20,29.70,4,1,5,0.00
2013-10-16,64.9,51.6,41.2,60.4,48.7,40.9,100,91,70,29.97,29.59,7,2,12,0.17
2013-10-17,68.7,58.6,49.8,55.6,52.2,48.2,94,80,60,30.02,29.81,4,2,8,0.00
2013-10-18,64.6,58.4,50.7,57.5,54.1,49.1,100,86,73,30.02,29.78,6,3,11,0.00
2013-10-19,68.9,59.9,55.0,62.5,56.7,52.5,96,89,73,29.77,29.64,4,1,7,0.06
2013-10-20,66.2,56.8,52.9,57.7,54.4,51.6,100,92,72,29.73,29.63,4,1,11,0.87
2013-10-21,64.6,61.2,55.6,59.5,57.4,54.3,100,88,79,29.73,29.60,4,2,12,0.04
2013-10-22,65.8,60.4,55.2,61.0,57.4,53.5,97,90,81,29.59,29.34,4,1,10,0.30
2013-10-23,65.5,58.1,48.0,56.9,50.6,44.9,97,77,55,29.85,29.25,6,3,17,0.11
2013-10-24,68.4,55.4,41.0,54.2,49.1,39.9,100,81,56,30.01,29.83,5,2,11,0.00
2013-10-25,66.9,61.5,55.8,62.1,56.5,53.0,100,84,72,29.83,29.59,5,2,10,0.11
2013-10-26,64.0,60.0,57.7,57.2,54.6,52.1,92,83,71,29.71,29.50,5,3,13,0.04
2013-10-27,62.1,56.7,51.4,55.8,49.9,46.3,97,79,58,29.50,29.22,8,3,15,0.60
2013-10-28,64.8,53.3,33.6,59.5,47.3,23.5,100,80,58,30.49,28.89,12,4,28,0.52
2013-10-29,54.9,47.3,41.7,45.0,40.9,37.2,89,79,54,30.09,29.54,6,2,9,0.01
2013-10-30,58.5,50.9,36.3,51.2,44.7,34.2,100,80,62,30.25,29.76,3,1,7,0.00
2013-10-31,56.3,55.0,53.6,53.7,50.4,48.3,94,85,77,30.04,29.90,4,2,9,0.04
2013-11-1,58.3,54.6,52.2,54.7,51.2,48.7,93,88,83,29.89,29.53,3,1,6,0.35
2013-11-2,60.3,53.3,50.0,53.0,45.7,39.8,96,76,62,29.56,29.36,6,3,15,0.08
2013-11-3,54.0,48.5,45.5,45.6,40.8,37.7,97,75,57,29.58,29.04,8,3,15,0.53
2013-11-4,50.5,44.7,37.8,45.6,38.6,34.5,100,80,63,29.51,28.99,4,2,11,0.22
2013-11-5,54.9,47.7,37.4,50.4,41.9,35.3,97,81,62,29.49,29.24,6,2,10,0.39
2013-11-6,60.1,55.4,48.9,57.0,51.8,41.7,94,88,75,29.52,29.44,6,2,15,0.24
2013-11-7,58.5,49.7,43.9,55.2,43.7,39.8,91,80,64,29.77,29.50,4,0,7,0.01
2013-11-8,54.0,45.2,37.8,48.8,43.1,36.5,96,93,82,29.75,29.56,2,0,7,0.28
2013-11-9,46.4,42.4,36.5,44.9,41.3,33.9,100,96,89,29.74,29.60,2,0,4,0.18
2013-11-10,48.9,42.4,35.4,43.3,37.6,33.0,100,84,61,30.26,29.60,3,1,9,0.01
2013-11-11,55.4,50.8,36.3,55.4,50.2,34.5,100,98,90,30.25,30.11,2,0,6,0.19
2013-11-12,55.8,48.2,39.4,55.4,45.9,38.2,100,92,73,30.50,30.13,3,0,6,0.05
2013-11-13,51.8,43.4,32.9,44.5,39.0,31.9,100,85,65,30.58,30.18,2,1,6,0.01
2013-11-14,50.2,45.7,40.8,45.2,39.4,35.3,89,79,66,30.41,30.10,6,2,20,0.01
2013-11-15,50.2,42.0,34.9,38.4,35.0,31.8,89,77,61,30.54,30.41,3,1,9,0.00
2013-11-16,50.2,42.9,32.4,44.8,40.4,31.1,100,91,79,30.51,29.55,2,0,5,0.00
2013-11-17,50.4,48.4,45.5,47.3,46.1,44.1,98,92,87,30.37,30.00,2,0,4,0.00
2013-11-18,50.2,47.4,43.9,48.4,45.7,40.3,100,94,87,30.00,29.74,2,1,6,0.01
2013-11-19,43.7,36.8,31.1,39.8,30.8,26.7,93,79,62,30.05,29.78,4,0,7,0.00
2013-11-20,45.5,39.7,29.7,42.6,37.3,26.8,100,91,79,30.02,28.98,5,2,18,0.24
2013-11-21,47.5,42.2,33.6,42.1,37.7,26.2,100,84,71,30.09,29.01,7,3,21,0.05
2013-11-22,46.0,41.4,37.4,38.4,34.3,31.9,91,76,61,30.15,29.91,6,2,13,0.00
2013-11-23,46.4,41.8,34.5,40.7,38.2,31.0,100,87,73,30.30,30.15,3,1,9,0.00
2013-11-24,47.5,44.0,39.9,45.1,40.6,37.3,96,88,76,30.55,30.30,4,1,11,0.13
2013-11-25,45.5,42.7,39.6,40.3,38.7,37.0,96,86,77,30.68,30.55,3,1,8,0.00
2013-11-26,46.6,40.9,31.1,39.4,36.2,29.6,95,84,69,30.71,30.56,3,1,4,0.00
2013-11-27,52.9,47.6,42.4,50.3,46.7,39.4,100,97,87,30.56,30.47,2,0,4,0.01
2013-11-28,51.3,48.4,46.8,48.3,46.9,45.9,100,95,87,30.56,30.49,2,0,3,0.00
2013-11-29,51.1,47.5,43.5,46.0,42.5,38.5,100,83,69,30.50,30.16,6,2,12,0.00
2013-11-30,48.4,42.9,36.7,41.3,38.2,34.3,95,84,76,30.45,30.17,4,1,7,0.00
2013-12-1,50.5,44.1,36.7,45.3,41.5,34.3,96,91,81,30.55,30.40,1,0,4,0.00
2013-12-2,50.0,47.3,28.2,46.1,42.8,21.3,98,85,74,30.55,29.31,3,1,5,0.00
2013-12-3,42.6,42.4,28.2,37.2,37.0,21.3,81,81,75,30.43,30.01,2,0,4,0.00
2013-12-4,42.6,42.6,42.6,37.2,37.2,37.2,81,81,81,30.77,30.56,3,1,5,0.00
2013-12-5,51.8,46.0,41.4,43.1,35.5,28.7,81,67,50,30.75,30.00,9,3,22,0.01
2013-12-6,47.5,43.5,36.3,40.7,34.8,27.1,89,71,60,30.39,30.23,4,1,11,0.00
2013-12-7,48.6,46.0,42.4,43.2,41.7,39.5,90,85,76,30.33,30.24,3,1,9,0.00
2013-12-8,52.9,47.6,39.9,44.5,42.2,36.7,90,82,72,30.29,30.22,4,2,10,0.00
2013-12-9,52.3,45.1,40.8,45.5,41.7,38.8,95,88,75,30.39,30.28,4,0,6,0.00
2013-12-10,48.7,40.1,33.8,46.8,37.7,31.2,96,91,84,30.45,30.38,1,0,2,0.01
2013-12-11,41.5,35.8,30.7,40.8,34.5,29.5,100,95,90,30.42,30.29,2,0,3,0.01
2013-12-12,48.7,42.5,30.7,48.6,41.8,29.5,100,98,72,30.28,30.01,2,0,4,0.01
2013-12-13,54.3,50.4,33.6,49.2,46.7,23.5,100,87,66,30.33,29.97,3,1,9,0.11
2013-12-14,52.9,48.4,37.2,49.1,44.8,34.6,96,87,78,30.30,30.03,6,3,14,0.06
2013-12-15,54.5,52.1,44.8,54.0,51.4,43.4,100,98,93,30.15,29.96,7,2,14,0.34
2013-12-16,56.3,52.3,44.1,54.2,50.8,43.3,100,95,88,30.13,29.92,5,2,11,0.56
2013-12-17,44.1,42.6,40.3,44.1,41.7,39.7,100,97,90,30.26,29.96,3,0,6,0.20
2013-12-18,50.7,47.7,40.1,49.1,45.9,40.1,100,94,86,29.96,29.29,4,2,13,0.34
2013-12-22,50.7,46.3,40.6,44.9,40.4,35.9,91,80,65,29.90,29.68,6,2,9,0.00
2013-12-23,53.4,48.3,39.6,51.6,46.0,36.6,96,92,83,29.89,28.82,8,3,15,0.91
2013-12-24,53.1,46.3,41.7,51.2,43.1,38.6,96,89,78,28.96,28.76,10,2,15,0.71
2013-12-25,44.6,39.9,36.7,41.2,38.2,34.2,100,94,80,29.15,28.90,3,0,6,0.05
2013-12-26,45.3,39.1,36.7,43.9,38.7,36.2,100,98,82,29.47,29.14,3,0,7,0.02
2013-12-27,52.3,48.7,43.9,51.5,42.0,37.0,98,78,63,29.22,28.96,7,4,13,0.14
2013-12-28,47.1,40.2,34.9,38.6,35.9,32.9,96,85,72,29.69,29.23,3,0,7,0.00
2013-12-29,50.9,39.0,30.9,41.8,35.8,25.2,100,89,71,30.07,29.70,4,0,9,0.01
2013-12-30,50.9,47.0,40.8,46.8,42.1,38.3,93,83,71,29.97,29.64,6,2,16,0.30
2013-12-31,51.3,45.3,40.6,47.2,42.4,37.7,94,90,83,29.82,29.51,5,1,13,0.37
2014-1-1,51.3,48.8,42.4,48.8,45.6,39.4,93,89,84,29.54,29.02,5,2,12,0.52
2014-1-2,51.3,48.0,43.3,47.2,42.7,39.7,90,82,70,29.44,29.02,5,1,10,0.14